Time;durP1;ratioP1;P1;durP2;ratioP2;P2;SDS_P1;SDS_P2;PMS_P1;PMS_P2;Temp;Humidity;BMP_temperature;BMP_pressure;BME280_temperature;BME280_humidity;BME280_pressure;Samples;Min_cycle;Max_cycle;Signal;HPM_P1;HPM_P2
2023/02/02 00:01:08;;;;;;;26.40;4.60;;;;;;;7.62;100.00;102308.91;5249235;28;20123;-75
2023/02/02 00:03:38;;;;;;;24.00;4.25;;;;;;;7.64;100.00;102323.03;5261357;28;20107;-74
2023/02/02 00:06:09;;;;;;;19.45;3.60;;;;;;;7.64;100.00;102317.69;5247640;28;20025;-74
2023/02/02 00:08:40;;;;;;;29.35;3.90;;;;;;;7.67;100.00;102314.78;5246207;28;20032;-74
2023/02/02 00:11:11;;;;;;;28.45;4.60;;;;;;;7.67;100.00;102311.25;5247790;28;20020;-75
2023/02/02 00:13:41;;;;;;;21.00;4.38;;;;;;;7.65;100.00;102313.19;5246237;28;20097;-75
2023/02/02 00:16:28;;;;;;;24.58;4.75;;;;;;;7.65;100.00;102310.53;5260891;28;20024;-74
2023/02/02 00:19:02;;;;;;;32.20;4.18;;;;;;;7.64;100.00;102319.50;5268414;28;20024;-74
2023/02/02 00:21:33;;;;;;;24.52;5.65;;;;;;;7.69;100.00;102317.34;5254911;28;20491;-75
2023/02/02 00:24:06;;;;;;;22.67;3.80;;;;;;;7.67;100.00;102317.44;5247808;28;20111;-74
2023/02/02 00:26:38;;;;;;;23.65;4.18;;;;;;;7.65;100.00;102323.88;5247296;28;20028;-74
2023/02/02 00:29:30;;;;;;;30.42;4.68;;;;;;;7.68;100.00;102320.97;5247176;28;20031;-75
2023/02/02 00:32:00;;;;;;;24.52;4.57;;;;;;;7.67;100.00;102317.44;5247348;28;20032;-74
2023/02/02 00:34:30;;;;;;;26.38;4.10;;;;;;;7.67;100.00;102314.78;5247362;28;20112;-74
2023/02/02 00:37:01;;;;;;;17.60;3.65;;;;;;;7.69;100.00;102320.88;5247079;28;20056;-74
2023/02/02 00:39:31;;;;;;;21.33;3.78;;;;;;;7.67;100.00;102316.59;5261596;28;20047;-74
2023/02/02 00:42:02;;;;;;;24.13;4.22;;;;;;;7.76;100.00;102318.59;5259960;28;20032;-74
2023/02/02 00:47:22;;;;;;;30.27;5.43;;;;;;;7.79;100.00;102310.38;5246743;28;20028;-75
2023/02/02 00:49:52;;;;;;;20.35;3.65;;;;;;;7.74;100.00;102321.41;5246870;28;20054;-74
2023/02/02 00:52:23;;;;;;;19.73;3.97;;;;;;;7.75;100.00;102315.09;5247102;28;20032;-74
2023/02/02 00:54:53;;;;;;;23.30;3.80;;;;;;;7.77;100.00;102312.28;5245995;28;20020;-74
2023/02/02 00:57:23;;;;;;;18.33;3.28;;;;;;;7.76;100.00;102319.47;5247162;28;20052;-74
2023/02/02 00:59:54;;;;;;;20.83;4.72;;;;;;;7.72;100.00;102309.09;5255844;28;20047;-74
2023/02/02 01:02:25;;;;;;;20.70;3.63;;;;;;;7.75;100.00;102323.09;5267685;28;20016;-75
2023/02/02 01:04:55;;;;;;;27.40;5.22;;;;;;;7.74;100.00;102328.56;5256407;28;20020;-74
2023/02/02 01:07:25;;;;;;;20.75;3.63;;;;;;;7.72;100.00;102317.13;5245666;28;20038;-75
2023/02/02 01:09:56;;;;;;;15.50;4.00;;;;;;;7.70;100.00;102321.72;5247343;28;20040;-75
2023/02/02 01:12:26;;;;;;;24.67;4.20;;;;;;;7.77;100.00;102325.66;5246999;28;20032;-75
2023/02/02 01:14:57;;;;;;;18.15;3.72;;;;;;;7.72;100.00;102325.97;5249505;28;20544;-74
2023/02/02 01:17:27;;;;;;;23.98;4.25;;;;;;;7.70;100.00;102325.25;5260942;28;20028;-74
2023/02/02 01:19:58;;;;;;;21.83;3.63;;;;;;;7.77;100.00;102331.00;5247130;28;20062;-74
2023/02/02 01:22:28;;;;;;;22.20;3.90;;;;;;;7.78;100.00;102330.03;5233809;28;20025;-74
2023/02/02 01:24:59;;;;;;;26.23;4.25;;;;;;;7.74;100.00;102321.41;5247172;28;20115;-74
2023/02/02 01:27:30;;;;;;;23.40;4.65;;;;;;;7.76;100.00;102329.28;5244830;28;20056;-74
2023/02/02 01:30:01;;;;;;;20.80;4.35;;;;;;;7.74;100.00;102323.22;5246868;28;20553;-74
2023/02/02 01:32:32;;;;;;;23.83;3.55;;;;;;;7.75;100.00;102331.13;5246736;28;20036;-74
2023/02/02 01:35:02;;;;;;;22.55;3.75;;;;;;;7.75;100.00;102322.25;5250175;28;20027;-74
2023/02/02 01:37:33;;;;;;;29.85;4.65;;;;;;;7.77;100.00;102328.31;5254353;28;20024;-74
2023/02/02 01:40:04;;;;;;;33.95;4.75;;;;;;;7.74;100.00;102321.41;5246043;28;20056;-74
2023/02/02 01:42:34;;;;;;;27.27;4.03;;;;;;;7.68;100.00;102337.00;5246969;28;20095;-75
2023/02/02 01:45:16;;;;;;;23.08;3.88;;;;;;;7.62;100.00;102335.63;5246034;28;20458;-74
2023/02/02 01:47:52;;;;;;;21.25;4.13;;;;;;;7.60;100.00;102337.56;5245766;28;20032;-75
2023/02/02 01:50:28;;;;;;;26.70;4.25;;;;;;;7.65;100.00;102342.59;5244747;28;20032;-74
2023/02/02 01:53:01;;;;;;;31.45;4.50;;;;;;;7.59;100.00;102335.00;5245881;28;20060;-74
2023/02/02 01:55:34;;;;;;;21.98;3.75;;;;;;;7.58;100.00;102327.94;5246188;28;20455;-74
2023/02/02 01:58:26;;;;;;;31.30;5.72;;;;;;;7.56;100.00;102329.88;5246066;28;20091;-74
2023/02/02 02:00:56;;;;;;;27.48;4.68;;;;;;;7.55;100.00;102330.84;5248009;28;20038;-74
2023/02/02 02:03:30;;;;;;;23.92;5.28;;;;;;;7.57;100.00;102327.09;5254947;28;20104;-74
2023/02/02 02:06:18;;;;;;;27.45;4.32;;;;;;;7.52;100.00;102323.91;5259477;28;20405;-74
2023/02/02 02:09:03;;;;;;;24.02;4.20;;;;;;;7.46;100.00;102330.53;5245762;28;20024;-74
2023/02/02 02:11:34;;;;;;;26.50;3.78;;;;;;;7.44;100.00;102335.16;5245789;28;20103;-74
2023/02/02 02:17:22;;;;;;;23.88;5.05;;;;;;;7.42;100.00;102338.88;5262245;28;20020;-75
2023/02/02 02:26:42;;;;;;;28.33;5.25;;;;;;;7.42;100.00;102341.53;5256049;28;20450;-74
2023/02/02 02:29:40;;;;;;;28.20;4.35;;;;;;;7.47;100.00;102336.72;5245182;28;20036;-74
2023/02/02 02:32:36;;;;;;;21.23;4.65;;;;;;;7.47;100.00;102332.25;5244821;28;20036;-74
2023/02/02 02:35:36;;;;;;;26.27;4.35;;;;;;;7.42;100.00;102334.38;5244914;28;20149;-74
2023/02/02 02:38:25;;;;;;;31.17;4.43;;;;;;;7.44;100.00;102336.97;5244591;28;20040;-74
2023/02/02 02:41:03;;;;;;;32.47;4.47;;;;;;;7.41;100.00;102339.84;5245174;28;20454;-75
2023/02/02 02:43:41;;;;;;;36.55;4.40;;;;;;;7.40;100.00;102327.47;5243868;28;20016;-74
2023/02/02 02:46:12;;;;;;;26.05;4.65;;;;;;;7.41;100.00;102342.50;5244765;28;20043;-74
2023/02/02 02:48:44;;;;;;;24.27;3.97;;;;;;;7.42;100.00;102331.72;5244152;28;20024;-74
2023/02/02 02:51:45;;;;;;;25.85;5.65;;;;;;;7.44;100.00;102329.81;5244666;28;20036;-74
2023/02/02 02:54:36;;;;;;;28.98;5.50;;;;;;;7.42;100.00;102337.06;5243772;28;20438;-74
2023/02/02 02:57:27;;;;;;;28.77;4.60;;;;;;;7.41;100.00;102347.84;5244392;28;20032;-74
2023/02/02 03:00:35;;;;;;;27.27;4.30;;;;;;;7.42;100.00;102344.22;5254976;28;20277;-74
2023/02/02 03:03:08;;;;;;;18.90;4.03;;;;;;;7.40;100.00;102335.47;5256699;28;20032;-74
2023/02/02 03:06:10;;;;;;;28.85;4.78;;;;;;;7.38;100.00;102332.94;5243356;28;20025;-74
2023/02/02 03:09:03;;;;;;;23.63;4.00;;;;;;;7.37;100.00;102335.69;5243322;28;20133;-74
2023/02/02 03:11:34;;;;;;;23.02;4.07;;;;;;;7.36;100.00;102340.16;5244471;28;20504;-74
2023/02/02 03:14:08;;;;;;;22.83;3.78;;;;;;;7.39;100.00;102349.78;5244756;28;20120;-74
2023/02/02 03:16:39;;;;;;;28.63;4.28;;;;;;;7.39;100.00;102349.78;5261112;28;20077;-74
2023/02/02 03:19:09;;;;;;;27.38;4.78;;;;;;;7.38;100.00;102351.63;5244710;28;20025;-74
2023/02/02 03:21:43;;;;;;;32.67;5.45;;;;;;;7.41;100.00;102348.72;5244615;28;20174;-74
2023/02/02 03:24:16;;;;;;;28.52;4.25;;;;;;;7.41;100.00;102351.38;5244061;28;20028;-74
2023/02/02 03:26:47;;;;;;;28.13;3.70;;;;;;;7.43;100.00;102356.59;5244747;28;20028;-74
2023/02/02 03:29:18;;;;;;;31.20;3.92;;;;;;;7.40;100.00;102355.00;5248952;28;20048;-74
2023/02/02 03:31:49;;;;;;;26.10;5.95;;;;;;;7.35;100.00;102351.81;5247441;28;20036;-74
2023/02/02 03:34:19;;;;;;;25.75;3.85;;;;;;;7.38;100.00;102356.06;5247515;28;20027;-74
2023/02/02 03:36:50;;;;;;;24.25;3.70;;;;;;;7.39;100.00;102361.31;5252619;28;20399;-75
2023/02/02 03:39:20;;;;;;;24.67;3.25;;;;;;;7.44;100.00;102353.00;5255921;28;20024;-75
2023/02/02 03:41:51;;;;;;;22.98;3.10;;;;;;;7.38;100.00;102350.72;5248777;28;20033;-74
2023/02/02 03:44:21;;;;;;;22.88;4.07;;;;;;;7.38;100.00;102358.75;5248387;28;20388;-75
2023/02/02 03:46:53;;;;;;;24.77;4.47;;;;;;;7.35;100.00;102357.16;5248117;28;20048;-75
2023/02/02 03:49:23;;;;;;;15.50;3.85;;;;;;;7.37;100.00;102359.72;5248258;28;20108;-75
2023/02/02 03:51:54;;;;;;;17.65;2.95;;;;;;;7.36;100.00;102352.66;5248521;28;20024;-75
2023/02/02 03:54:24;;;;;;;22.88;4.32;;;;;;;7.40;100.00;102362.19;5247954;28;20021;-75
2023/02/02 03:56:55;;;;;;;23.40;3.70;;;;;;;7.37;100.00;102363.22;5246602;28;20034;-75
2023/02/02 03:59:25;;;;;;;29.42;3.88;;;;;;;7.39;100.00;102353.31;5255054;28;20081;-75
2023/02/02 04:01:56;;;;;;;17.85;3.03;;;;;;;7.38;100.00;102356.06;5257308;28;20448;-75
2023/02/02 04:04:26;;;;;;;29.60;3.97;;;;;;;7.36;100.00;102358.00;5261312;28;20477;-75
2023/02/02 04:06:57;;;;;;;22.00;3.50;;;;;;;7.38;100.00;102367.63;5246442;28;20389;-75
2023/02/02 04:09:28;;;;;;;26.30;3.72;;;;;;;7.39;100.00;102372.00;5247909;28;20032;-75
2023/02/02 04:11:58;;;;;;;26.08;4.78;;;;;;;7.42;100.00;102370.91;5260868;28;20515;-75
2023/02/02 04:14:29;;;;;;;24.00;3.72;;;;;;;7.45;100.00;102373.38;5246645;28;20032;-75
2023/02/02 04:16:59;;;;;;;18.60;3.40;;;;;;;7.43;100.00;102388.63;5263684;28;20513;-75
2023/02/02 04:19:30;;;;;;;22.98;3.38;;;;;;;7.41;100.00;102386.09;5248148;28;20146;-75
2023/02/02 04:22:00;;;;;;;25.02;3.63;;;;;;;7.42;100.00;102393.13;5247978;28;20024;-75
2023/02/02 04:24:30;;;;;;;25.25;4.40;;;;;;;7.38;100.00;102393.44;5247304;28;20579;-75
2023/02/02 04:27:01;;;;;;;18.17;5.38;;;;;;;7.40;100.00;102388.88;5247219;28;20415;-75
2023/02/02 04:29:31;;;;;;;26.70;4.10;;;;;;;7.42;100.00;102382.44;5247702;28;20025;-75
2023/02/02 04:32:02;;;;;;;32.75;3.92;;;;;;;7.43;100.00;102385.97;5246485;28;20412;-75
2023/02/02 04:34:32;;;;;;;33.33;5.97;;;;;;;7.39;100.00;102379.16;5247283;28;20025;-75
2023/02/02 04:37:03;;;;;;;32.40;5.18;;;;;;;7.39;100.00;102382.69;5245845;28;20029;-75
2023/02/02 04:39:33;;;;;;;27.75;3.80;;;;;;;7.43;100.00;102377.97;5247610;28;20048;-75
2023/02/02 04:42:04;;;;;;;25.95;3.78;;;;;;;7.44;100.00;102382.38;5259571;28;20028;-75
2023/02/02 04:44:34;;;;;;;26.08;3.67;;;;;;;7.42;100.00;102387.78;5247256;28;20027;-75
2023/02/02 04:47:05;;;;;;;24.98;4.70;;;;;;;7.43;100.00;102393.97;5247222;28;20025;-75
2023/02/02 04:49:35;;;;;;;22.10;3.95;;;;;;;7.43;100.00;102384.19;5246882;28;20028;-75
2023/02/02 04:52:06;;;;;;;25.70;5.93;;;;;;;7.42;100.00;102393.13;5247494;28;20115;-75
2023/02/02 04:54:36;;;;;;;18.88;3.88;;;;;;;7.41;100.00;102395.91;5247218;28;20480;-75
2023/02/02 04:57:07;;;;;;;21.90;5.32;;;;;;;7.46;100.00;102399.97;5247280;28;20044;-75
2023/02/02 04:59:37;;;;;;;22.48;3.80;;;;;;;7.47;100.00;102406.16;5248429;28;20105;-75
2023/02/02 05:02:08;;;;;;;21.88;3.75;;;;;;;7.43;100.00;102393.97;5248338;28;20423;-75
2023/02/02 05:04:38;;;;;;;22.67;4.13;;;;;;;7.34;100.00;102390.16;5259159;28;20032;-75
2023/02/02 05:07:09;;;;;;;31.27;5.68;;;;;;;7.37;100.00;102383.75;5247499;28;20484;-75
2023/02/02 05:09:39;;;;;;;27.45;3.28;;;;;;;7.37;100.00;102387.25;5247259;28;20056;-75
2023/02/02 05:12:10;;;;;;;29.40;4.38;;;;;;;7.38;100.00;102383.66;5246949;28;20483;-75
2023/02/02 05:14:40;;;;;;;21.38;3.80;;;;;;;7.37;100.00;102375.72;5246822;28;20107;-75
2023/02/02 05:17:10;;;;;;;29.58;4.70;;;;;;;7.34;100.00;102384.81;5262893;28;20024;-75
2023/02/02 05:19:41;;;;;;;22.42;4.05;;;;;;;7.41;100.00;102383.41;5247104;28;20366;-75
2023/02/02 05:22:11;;;;;;;29.95;8.32;;;;;;;7.45;100.00;102376.06;5246995;28;20021;-75
2023/02/02 05:24:42;;;;;;;102.65;45.65;;;;;;;7.44;100.00;102382.38;5247061;28;20051;-75
2023/02/02 05:27:12;;;;;;;79.68;34.35;;;;;;;7.44;100.00;102390.38;5246047;28;20016;-75
2023/02/02 05:29:43;;;;;;;126.50;50.47;;;;;;;7.42;100.00;102393.13;5246163;28;20032;-75
2023/02/02 05:32:13;;;;;;;35.55;10.38;;;;;;;7.39;100.00;102385.34;5246777;28;20120;-75
2023/02/02 05:34:44;;;;;;;33.92;8.63;;;;;;;7.45;100.00;102382.25;5247256;28;20016;-75
2023/02/02 05:37:14;;;;;;;47.20;15.40;;;;;;;7.46;100.00;102381.28;5257274;28;20025;-75
2023/02/02 05:39:45;;;;;;;30.63;8.48;;;;;;;7.48;100.00;102387.38;5244592;28;20031;-75
2023/02/02 05:42:15;;;;;;;71.70;33.72;;;;;;;7.47;100.00;102387.47;5246348;28;20036;-75
2023/02/02 05:44:46;;;;;;;25.10;6.50;;;;;;;7.46;100.00;102391.97;5245914;28;20024;-75
2023/02/02 05:47:16;;;;;;;26.00;8.18;;;;;;;7.47;100.00;102399.00;5245697;28;20074;-75
2023/02/02 05:49:48;;;;;;;18.70;6.55;;;;;;;7.48;100.00;102394.50;5245603;28;20027;-75
2023/02/02 05:52:21;;;;;;;36.90;4.25;;;;;;;7.49;100.00;102391.75;5246061;28;20024;-75
2023/02/02 05:54:52;;;;;;;27.60;4.90;;;;;;;7.50;100.00;102401.47;5246168;28;20035;-75
2023/02/02 05:57:22;;;;;;;25.17;4.95;;;;;;;7.51;100.00;102405.84;5258535;28;20396;-75
2023/02/02 05:59:53;;;;;;;21.48;4.40;;;;;;;7.53;100.00;102411.09;5247221;28;20104;-75
2023/02/02 06:02:24;;;;;;;19.00;5.10;;;;;;;7.51;100.00;102416.53;5245685;28;20012;-75
2023/02/02 06:04:54;;;;;;;27.17;9.98;;;;;;;7.53;100.00;102403.94;5227944;28;20046;-74
2023/02/02 06:07:25;;;;;;;26.60;4.38;;;;;;;7.50;100.00;102400.63;5245481;28;20126;-75
2023/02/02 06:09:55;;;;;;;26.85;7.18;;;;;;;7.47;100.00;102398.16;5244586;28;20028;-75
2023/02/02 06:12:26;;;;;;;25.80;4.47;;;;;;;7.50;100.00;102406.81;5244542;28;20021;-75
2023/02/02 06:14:56;;;;;;;17.73;4.72;;;;;;;7.50;100.00;102406.81;5246731;28;20113;-75
2023/02/02 06:17:27;;;;;;;29.55;8.32;;;;;;;7.48;100.00;102414.09;5245517;28;20111;-75
2023/02/02 06:19:57;;;;;;;27.83;8.43;;;;;;;7.49;100.00;102421.13;5244517;28;20094;-75
2023/02/02 06:22:29;;;;;;;22.25;4.47;;;;;;;7.44;100.00;102420.59;5244757;28;20044;-75
2023/02/02 06:24:59;;;;;;;21.60;3.70;;;;;;;7.44;100.00;102423.28;5245558;28;20415;-75
2023/02/02 06:27:30;;;;;;;23.08;4.47;;;;;;;7.43;100.00;102420.69;5244939;28;20017;-75
2023/02/02 06:30:01;;;;;;;20.65;3.70;;;;;;;7.43;100.00;102412.66;5245436;28;20032;-75
2023/02/02 06:32:31;;;;;;;33.65;9.98;;;;;;;7.41;100.00;102418.13;5245553;28;20085;-75
2023/02/02 06:35:02;;;;;;;38.28;11.50;;;;;;;7.41;100.00;102411.94;5244937;28;20082;-75
2023/02/02 06:37:33;;;;;;;17.85;6.15;;;;;;;7.50;100.00;102412.16;5245245;28;20074;-75
2023/02/02 06:40:05;;;;;;;28.27;9.90;;;;;;;7.43;100.00;102413.56;5251495;28;20133;-75
2023/02/02 06:42:36;;;;;;;31.23;9.40;;;;;;;7.41;100.00;102418.13;5251830;28;20139;-75
2023/02/02 06:45:07;;;;;;;29.60;4.57;;;;;;;7.47;100.00;102425.72;5243861;28;20021;-75
2023/02/02 06:47:38;;;;;;;21.83;3.55;;;;;;;7.44;100.00;102425.94;5243386;28;20034;-75
2023/02/02 06:50:09;;;;;;;14.90;3.92;;;;;;;7.47;100.00;102425.72;5244833;28;20081;-75
2023/02/02 06:52:46;;;;;;;18.52;4.35;;;;;;;7.44;100.00;102411.72;5243374;28;20108;-75
2023/02/02 06:55:17;;;;;;;19.77;4.65;;;;;;;7.46;100.00;102424.00;5243699;28;20027;-74
2023/02/02 06:57:48;;;;;;;25.75;6.38;;;;;;;7.42;100.00;102424.31;5248156;28;20016;-75
2023/02/02 07:00:19;;;;;;;21.25;4.63;;;;;;;7.44;100.00;102433.09;5263720;28;20077;-75
2023/02/02 07:02:49;;;;;;;26.15;11.55;;;;;;;7.40;100.00;102431.59;5243832;28;20103;-75
2023/02/02 07:05:22;;;;;;;71.70;28.08;;;;;;;7.41;100.00;102447.50;5244280;28;20028;-75
2023/02/02 07:07:53;;;;;;;24.35;10.40;;;;;;;7.40;100.00;102445.78;5243247;28;20035;-75
2023/02/02 07:10:23;;;;;;;23.33;3.50;;;;;;;7.48;100.00;102446.13;5244398;28;20032;-75
2023/02/02 07:12:54;;;;;;;25.73;4.90;;;;;;;7.47;100.00;102449.75;5244645;28;20111;-75
2023/02/02 07:15:24;;;;;;;21.65;6.05;;;;;;;7.44;100.00;102454.47;5247347;28;20021;-75
2023/02/02 07:17:55;;;;;;;27.27;4.88;;;;;;;7.41;100.00;102449.31;5244405;28;20028;-75
2023/02/02 07:20:26;;;;;;;18.13;5.05;;;;;;;7.42;100.00;102451.03;5244454;28;20067;-75
2023/02/02 07:22:56;;;;;;;20.90;4.82;;;;;;;7.42;100.00;102459.03;5244945;28;20370;-75
2023/02/02 07:25:27;;;;;;;20.13;4.78;;;;;;;7.38;100.00;102455.75;5244494;28;20025;-75
2023/02/02 07:27:57;;;;;;;15.82;3.30;;;;;;;7.42;100.00;102451.88;5242557;28;20017;-75
2023/02/02 07:30:28;;;;;;;17.00;3.38;;;;;;;7.46;100.00;102463.22;5251470;28;20031;-75
2023/02/02 07:32:59;;;;;;;21.48;5.65;;;;;;;7.43;100.00;102458.94;5250718;28;20035;-75
2023/02/02 07:35:29;;;;;;;22.63;6.28;;;;;;;7.44;100.00;102443.78;5243178;28;20346;-75
2023/02/02 07:38:00;;;;;;;19.00;4.22;;;;;;;7.48;100.00;102447.91;5246082;28;20032;-75
2023/02/02 07:40:30;;;;;;;19.98;4.20;;;;;;;7.45;100.00;102443.66;5265171;28;20046;-75
2023/02/02 07:43:01;;;;;;;21.15;3.53;;;;;;;7.44;100.00;102452.63;5247228;28;20047;-75
2023/02/02 07:45:31;;;;;;;18.42;5.18;;;;;;;7.45;100.00;102457.00;5244425;28;20033;-75
2023/02/02 07:48:02;;;;;;;17.17;4.20;;;;;;;7.47;100.00;102455.06;5244233;28;20024;-75
2023/02/02 07:50:33;;;;;;;17.42;4.03;;;;;;;7.46;100.00;102455.19;5226526;28;20035;-75
2023/02/02 07:53:03;;;;;;;19.95;5.82;;;;;;;7.45;100.00;102459.69;5242641;28;20028;-75
2023/02/02 07:55:34;;;;;;;28.55;8.05;;;;;;;7.42;100.00;102454.53;5242956;28;20066;-75
2023/02/02 07:58:06;;;;;;;21.92;3.60;;;;;;;7.40;100.00;102461.81;5243490;28;20496;-75
2023/02/02 08:00:37;;;;;;;17.15;4.30;;;;;;;7.41;100.00;102466.19;5242491;28;20443;-75
2023/02/02 08:03:10;;;;;;;20.17;4.05;;;;;;;7.45;100.00;102462.34;5253185;28;20028;-75
2023/02/02 08:05:41;;;;;;;23.52;7.32;;;;;;;7.47;100.00;102468.44;5247722;28;20025;-75
2023/02/02 08:08:11;;;;;;;31.98;6.97;;;;;;;7.49;100.00;102471.03;5244007;28;20032;-75
2023/02/02 08:10:47;;;;;;;29.80;7.28;;;;;;;7.50;100.00;102470.91;5242486;28;20054;-75
2023/02/02 08:13:19;;;;;;;25.73;5.32;;;;;;;7.53;100.00;102473.38;5244090;28;20400;-75
2023/02/02 08:15:49;;;;;;;23.92;4.75;;;;;;;7.57;100.00;102467.78;5257578;28;20055;-75
2023/02/02 08:18:20;;;;;;;32.65;9.13;;;;;;;7.55;100.00;102457.22;5236395;28;20494;-75
2023/02/02 08:20:51;;;;;;;22.48;5.40;;;;;;;7.57;100.00;102462.44;5246804;28;20090;-75
2023/02/02 08:23:22;;;;;;;19.88;4.05;;;;;;;7.63;100.00;102462.91;5247628;28;20024;-76
2023/02/02 08:25:53;;;;;;;20.85;5.75;;;;;;;7.65;100.00;102468.97;5246418;28;20058;-76
2023/02/02 08:28:24;;;;;;;15.65;4.38;;;;;;;7.69;100.00;102472.28;5247046;28;20032;-75
2023/02/02 08:30:54;;;;;;;21.90;3.97;;;;;;;7.75;100.00;102469.19;5257433;28;20460;-75
2023/02/02 08:33:25;;;;;;;26.45;3.72;;;;;;;7.81;100.00;102482.09;5250470;28;20050;-75
2023/02/02 08:35:55;;;;;;;23.17;4.55;;;;;;;7.87;100.00;102473.66;5247695;28;20480;-75
2023/02/02 08:38:26;;;;;;;24.30;7.05;;;;;;;7.89;100.00;102482.44;5251880;28;20456;-75
2023/02/02 08:41:04;;;;;;;22.30;5.07;;;;;;;7.93;100.00;102489.28;5255150;28;20035;-75
2023/02/02 08:43:35;;;;;;;16.13;3.67;;;;;;;7.96;100.00;102491.69;5247442;28;20561;-75
2023/02/02 08:46:08;;;;;;;15.07;4.85;;;;;;;7.93;100.00;102494.63;5250146;28;20111;-75
2023/02/02 08:48:39;;;;;;;19.17;4.57;;;;;;;7.96;100.00;102502.38;5257513;28;20077;-75
2023/02/02 08:51:11;;;;;;;15.98;3.63;;;;;;;7.92;100.00;102505.38;5247700;28;20393;-76
2023/02/02 08:53:42;;;;;;;20.45;6.65;;;;;;;7.90;100.00;102513.53;5259302;28;20020;-75
2023/02/02 08:56:15;;;;;;;16.17;3.47;;;;;;;7.85;100.00;102510.31;5249262;28;20016;-75
2023/02/02 08:58:49;;;;;;;27.45;11.75;;;;;;;7.87;100.00;102513.72;5248539;28;20031;-75
2023/02/02 09:01:22;;;;;;;24.60;4.10;;;;;;;7.91;100.00;102504.53;5247277;28;20084;-75
2023/02/02 09:03:56;;;;;;;20.88;3.72;;;;;;;7.95;100.00;102519.41;5247146;28;20063;-75
2023/02/02 09:06:30;;;;;;;13.80;3.03;;;;;;;8.17;100.00;102531.22;5245498;28;20025;-75
2023/02/02 09:09:02;;;;;;;16.88;3.75;;;;;;;8.14;100.00;102534.13;5250175;28;20028;-75
2023/02/02 09:11:33;;;;;;;17.33;3.83;;;;;;;8.21;100.00;102546.94;5256211;28;20543;-76
2023/02/02 09:14:05;;;;;;;18.77;4.45;;;;;;;8.26;100.00;102555.50;5246234;28;20396;-76
2023/02/02 09:16:35;;;;;;;17.63;3.47;;;;;;;8.24;100.00;102540.53;5249153;28;20081;-75
2023/02/02 09:19:06;;;;;;;17.63;2.97;;;;;;;8.27;100.00;102533.13;5247054;28;20024;-75
2023/02/02 09:21:36;;;;;;;15.25;3.28;;;;;;;8.43;100.00;102543.59;5248233;28;20056;-76
2023/02/02 09:24:10;;;;;;;24.00;4.28;;;;;;;8.55;100.00;102545.41;5258714;28;20025;-75
2023/02/02 09:26:41;;;;;;;20.65;4.05;;;;;;;8.71;100.00;102552.31;5245804;28;20030;-76
2023/02/02 09:29:15;;;;;;;17.08;4.35;;;;;;;8.76;100.00;102563.53;5246787;28;20104;-76
2023/02/02 09:31:45;;;;;;;18.08;5.15;;;;;;;8.67;100.00;102558.84;5246168;28;20090;-76
2023/02/02 09:34:16;;;;;;;12.73;3.00;;;;;;;8.61;100.00;102565.50;5246518;28;20020;-75
2023/02/02 09:36:46;;;;;;;17.08;4.15;;;;;;;8.66;100.00;102571.38;5264446;28;20020;-76
2023/02/02 09:39:18;;;;;;;24.10;5.22;;;;;;;8.70;100.00;102558.63;5251865;28;20032;-76
2023/02/02 09:42:27;;;;;;;16.85;4.00;;;;;;;8.88;100.00;102584.03;5245056;28;20044;-75
2023/02/02 09:45:04;;;;;;;29.05;16.67;;;;;;;8.88;100.00;102586.69;5245871;28;20040;-76
2023/02/02 09:47:52;;;;;;;18.13;6.15;;;;;;;8.87;100.00;102598.38;5245062;28;20020;-76
2023/02/02 09:50:37;;;;;;;18.00;3.97;;;;;;;8.79;100.00;102603.47;5245975;28;20024;-75
2023/02/02 09:53:14;;;;;;;22.75;6.20;;;;;;;8.68;100.00;102600.69;5244537;28;20028;-76
2023/02/02 09:55:50;;;;;;;59.70;24.73;;;;;;;8.68;100.00;102595.34;5247515;28;20008;-77
2023/02/02 09:58:42;;;;;;;43.97;22.67;;;;;;;8.68;100.00;102592.66;5266223;28;20028;-76
2023/02/02 10:01:17;;;;;;;28.13;9.45;;;;;;;8.63;100.00;102595.66;5259331;28;20020;-76
2023/02/02 10:04:24;;;;;;;37.47;13.38;;;;;;;8.72;100.00;102603.03;5245574;28;20024;-75
2023/02/02 10:06:59;;;;;;;12.25;4.90;;;;;;;8.86;100.00;102606.53;5245245;28;20033;-75
2023/02/02 10:09:29;;;;;;;27.48;4.60;;;;;;;8.92;100.00;102614.97;5253905;28;20035;-75
2023/02/02 10:12:20;;;;;;;17.52;3.28;;;;;;;8.96;100.00;102608.41;5263089;28;20588;-76
2023/02/02 10:14:53;;;;;;;15.95;3.72;;;;;;;8.97;100.00;102603.91;5256238;28;20032;-76
2023/02/02 10:17:34;;;;;;;17.05;4.07;;;;;;;8.95;100.00;102612.06;5258876;28;20485;-75
2023/02/02 10:20:33;;;;;;;15.93;3.90;;;;;;;9.04;100.00;102622.09;5245593;28;20024;-76
2023/02/02 10:23:14;;;;;;;14.38;3.10;;;;;;;9.10;100.00;102622.63;5244852;28;20511;-76
2023/02/02 10:25:56;;;;;;;16.38;3.25;;;;;;;9.20;100.00;102626.31;5244400;28;20017;-76
2023/02/02 10:28:53;;;;;;;14.25;3.78;;;;;;;9.38;100.00;102629.44;5245129;28;20029;-75
2023/02/02 10:31:29;;;;;;;31.13;14.70;;;;;;;9.39;100.00;102631.13;5258791;28;20388;-76
2023/02/02 10:34:12;;;;;;;19.63;7.05;;;;;;;9.33;100.00;102621.75;5245817;28;20028;-76
2023/02/02 10:36:44;;;;;;;28.13;12.50;;;;;;;9.43;100.00;102616.53;5244996;28;20020;-76
2023/02/02 10:39:26;;;;;;;24.65;5.13;;;;;;;9.50;100.00;102625.84;5245803;28;20032;-76
2023/02/02 10:42:26;;;;;;;13.00;3.33;;;;;;;9.49;100.00;102621.47;5244097;28;20032;-76
2023/02/02 10:45:00;;;;;;;18.17;2.90;;;;;;;9.49;100.00;102613.44;5265609;28;20548;-76
2023/02/02 10:47:32;;;;;;;17.10;3.45;;;;;;;9.60;100.00;102622.34;5250956;28;20549;-76
2023/02/02 10:50:12;;;;;;;11.07;4.15;;;;;;;9.69;100.00;102620.81;5264458;28;20492;-76
2023/02/02 10:52:47;;;;;;;19.00;3.33;;;;;;;9.69;100.00;102622.59;5262395;28;20485;-76
2023/02/02 10:55:23;;;;;;;11.57;2.75;;;;;;;9.78;100.00;102616.53;5245160;28;20646;-76
2023/02/02 10:58:13;;;;;;;14.88;4.00;;;;;;;9.82;100.00;102626.06;5250652;28;20547;-76
2023/02/02 11:00:49;;;;;;;110.38;33.83;;;;;;;9.76;100.00;102624.72;5246806;28;20060;-76
2023/02/02 11:03:24;;;;;;;131.20;40.92;;;;;;;9.82;100.00;102628.75;5243418;28;20028;-76
2023/02/02 11:08:55;;;;;;;19.23;4.80;;;;;;;9.67;100.00;102622.72;5246654;28;20025;-76
2023/02/02 11:11:46;;;;;;;121.72;50.72;;;;;;;9.69;100.00;102634.19;5255256;28;20453;-76
2023/02/02 11:14:28;;;;;;;23.20;8.50;;;;;;;9.63;100.00;102634.66;5245056;28;20374;-76
2023/02/02 11:17:02;;;;;;;14.63;3.78;;;;;;;9.75;100.00;102638.25;5247345;28;20023;-76
2023/02/02 11:19:34;;;;;;;14.75;4.28;;;;;;;9.67;100.00;102625.41;5254660;28;20673;-76
2023/02/02 11:22:04;;;;;;;14.20;2.92;;;;;;;9.68;100.00;102615.53;5247457;28;20020;-76
2023/02/02 11:24:48;;;;;;;17.02;4.55;;;;;;;9.56;100.00;102628.06;5243738;28;20020;-76
2023/02/02 11:27:23;;;;;;;15.20;3.05;;;;;;;9.56;100.00;102634.28;5242979;28;20171;-76
2023/02/02 11:29:55;;;;;;;18.52;5.20;;;;;;;9.45;100.00;102625.34;5244884;28;20021;-76
2023/02/02 11:32:26;;;;;;;20.85;3.08;;;;;;;9.47;100.00;102624.25;5247372;28;20138;-76
2023/02/02 11:35:18;;;;;;;11.80;2.95;;;;;;;9.40;100.00;102627.50;5247287;28;20111;-76
2023/02/02 11:38:09;;;;;;;16.75;4.60;;;;;;;9.30;100.00;102622.00;5243130;28;20024;-77
2023/02/02 11:40:44;;;;;;;18.65;5.30;;;;;;;9.35;100.00;102625.19;5242512;28;20024;-76
2023/02/02 11:43:18;;;;;;;11.13;2.23;;;;;;;9.51;100.00;102617.69;5243491;28;20024;-76
2023/02/02 11:45:55;;;;;;;15.05;3.22;;;;;;;9.61;100.00;102609.81;5243497;28;20643;-76
2023/02/02 11:48:31;;;;;;;19.50;4.05;;;;;;;9.83;100.00;102609.00;5244590;28;20162;-76
2023/02/02 11:51:03;;;;;;;18.98;2.75;;;;;;;10.11;100.00;102610.41;5250497;28;20052;-76
2023/02/02 11:54:11;;;;;;;13.20;2.90;;;;;;;10.18;100.00;102608.94;5255779;28;20029;-76
2023/02/02 11:56:47;;;;;;;15.00;3.13;;;;;;;10.43;100.00;102610.56;5246387;28;20048;-76
2023/02/02 11:59:38;;;;;;;14.50;3.75;;;;;;;10.74;100.00;102600.03;5263574;28;20023;-76
2023/02/02 12:02:19;;;;;;;25.13;8.63;;;;;;;10.77;100.00;102595.28;5254204;28;20052;-76
2023/02/02 12:04:52;;;;;;;21.42;7.47;;;;;;;10.75;100.00;102601.75;5257724;28;20033;-76